createdAt,value
2022-12-11T00:00:26.877Z,3.33
2022-12-11T00:02:54.277Z,3.35
2022-12-11T00:05:21.421Z,3.23
2022-12-11T00:07:48.542Z,3.08
2022-12-11T00:10:15.938Z,3.08
2022-12-11T00:12:43.006Z,3.08
2022-12-11T00:15:10.613Z,3.07
2022-12-11T00:17:38.558Z,3.02
2022-12-11T00:20:06.135Z,2.99
2022-12-11T00:22:33.285Z,2.82
2022-12-11T00:25:00.636Z,2.86
2022-12-11T00:27:27.805Z,2.84
2022-12-11T00:29:54.866Z,2.71
2022-12-11T00:32:22.373Z,2.62
2022-12-11T00:34:49.454Z,2.57
2022-12-11T00:37:17.435Z,2.60
2022-12-11T00:39:45.580Z,2.59
2022-12-11T00:42:12.732Z,2.53
2022-12-11T00:44:39.798Z,2.53
2022-12-11T00:47:08.133Z,2.69
2022-12-11T00:49:35.180Z,2.60
2022-12-11T00:52:02.242Z,2.62
2022-12-11T00:54:29.612Z,2.66
2022-12-11T00:56:56.670Z,2.70
2022-12-11T00:59:23.734Z,2.68
2022-12-11T01:01:51.903Z,2.64
2022-12-11T01:04:19.049Z,2.55
2022-12-11T01:06:46.115Z,2.39
2022-12-11T01:09:31.767Z,2.44
2022-12-11T01:11:58.874Z,2.42
2022-12-11T01:14:26.693Z,2.31
2022-12-11T01:16:53.795Z,2.31
2022-12-11T01:19:20.894Z,2.26
2022-12-11T01:21:48.233Z,2.29
2022-12-11T01:24:15.276Z,2.34
2022-12-11T01:26:42.332Z,2.35
2022-12-11T01:29:09.668Z,2.35
2022-12-11T01:31:37.838Z,2.30
2022-12-11T01:34:04.910Z,2.26
2022-12-11T01:36:32.282Z,2.24
2022-12-11T01:38:59.424Z,2.26
2022-12-11T01:41:26.628Z,2.19
2022-12-11T01:44:03.080Z,2.20
2022-12-11T01:46:31.870Z,2.17
2022-12-11T01:49:00.478Z,2.21
2022-12-11T01:51:29.586Z,2.21
2022-12-11T01:54:03.680Z,2.15
2022-12-11T01:56:31.257Z,2.11
2022-12-11T01:59:03.015Z,2.11
2022-12-11T02:01:47.086Z,2.06
2022-12-11T02:04:15.679Z,2.04
2022-12-11T02:06:45.513Z,2.04
2022-12-11T02:09:15.300Z,2.04
2022-12-11T02:12:06.899Z,2.01
2022-12-11T02:14:43.382Z,1.98
2022-12-11T02:17:17.607Z,1.96
2022-12-11T02:19:48.565Z,1.97
2022-12-11T02:22:54.558Z,1.91
2022-12-11T02:25:47.118Z,1.88
2022-12-11T02:28:21.322Z,1.89
2022-12-11T02:30:57.781Z,1.86
2022-12-11T02:33:37.205Z,1.90
2022-12-11T02:36:05.280Z,1.85
2022-12-11T02:38:35.765Z,1.78
2022-12-11T02:41:03.034Z,1.70
2022-12-11T02:43:31.018Z,1.67
2022-12-11T02:45:59.581Z,1.66
2022-12-11T02:48:26.686Z,1.59
2022-12-11T02:50:56.853Z,1.58
2022-12-11T02:53:26.783Z,1.47
2022-12-11T02:56:02.980Z,1.45
2022-12-11T02:58:32.860Z,1.46
2022-12-11T03:01:00.144Z,1.47
2022-12-11T03:03:29.563Z,1.56
2022-12-11T03:05:57.098Z,1.53
2022-12-11T03:08:24.293Z,1.47
2022-12-11T03:10:51.460Z,1.45
2022-12-11T03:13:20.924Z,1.47
2022-12-11T03:16:06.491Z,1.54
2022-12-11T03:18:52.726Z,1.47
2022-12-11T03:21:49.394Z,1.50
2022-12-11T03:24:30.716Z,1.52
2022-12-11T03:27:11.094Z,1.54
2022-12-11T03:29:42.442Z,1.52
2022-12-11T03:32:13.715Z,1.58
2022-12-11T03:35:21.586Z,1.47
2022-12-11T03:37:50.785Z,1.39
2022-12-11T03:40:20.331Z,1.38
2022-12-11T03:42:50.714Z,1.42
2022-12-11T03:45:19.547Z,1.50
2022-12-11T03:47:47.581Z,1.43
2022-12-11T03:50:16.771Z,1.43
2022-12-11T03:52:46.394Z,1.42
2022-12-11T03:55:16.046Z,1.40
2022-12-11T03:57:43.700Z,1.44
2022-12-11T04:00:14.621Z,1.41
2022-12-11T04:02:42.467Z,1.42
2022-12-11T04:05:10.935Z,1.39
2022-12-11T04:07:38.169Z,1.44
2022-12-11T04:10:07.140Z,1.47
2022-12-11T04:12:34.288Z,1.42
2022-12-11T04:15:04.200Z,1.39
2022-12-11T04:17:54.178Z,1.42
2022-12-11T04:20:40.054Z,1.35
2022-12-11T04:23:31.032Z,1.34
2022-12-11T04:26:12.214Z,1.41
2022-12-11T04:28:40.126Z,1.38
2022-12-11T04:31:11.431Z,1.39
2022-12-11T04:33:38.513Z,1.42
2022-12-11T04:36:06.383Z,1.33
2022-12-11T04:38:33.512Z,1.37
2022-12-11T04:41:06.597Z,1.44
2022-12-11T04:43:34.053Z,1.42
2022-12-11T04:46:09.878Z,1.41
2022-12-11T04:48:37.989Z,1.47
2022-12-11T04:51:05.688Z,1.51
2022-12-11T04:53:32.851Z,1.52
2022-12-11T04:56:00.213Z,1.48
2022-12-11T04:58:27.571Z,1.42
2022-12-11T05:00:57.273Z,1.41
2022-12-11T05:03:24.654Z,1.51
2022-12-11T05:05:53.107Z,1.41
2022-12-11T05:08:21.139Z,1.45
2022-12-11T05:11:01.594Z,1.50
2022-12-11T05:13:29.643Z,1.51
2022-12-11T05:15:57.345Z,1.50
2022-12-11T05:18:24.984Z,1.52
2022-12-11T05:21:02.273Z,1.49
2022-12-11T05:23:29.934Z,1.46
2022-12-11T05:26:02.457Z,1.45
2022-12-11T05:28:31.090Z,1.46
2022-12-11T05:30:59.932Z,1.47
2022-12-11T05:33:27.606Z,1.47
2022-12-11T05:35:55.024Z,1.46
2022-12-11T05:38:22.665Z,1.51
2022-12-11T05:40:58.016Z,1.42
2022-12-11T05:43:26.224Z,1.41
2022-12-11T05:45:53.508Z,1.41
2022-12-11T05:48:20.626Z,1.34
2022-12-11T05:51:01.348Z,1.39
2022-12-11T05:53:29.220Z,1.42
2022-12-11T05:56:02.499Z,1.34
2022-12-11T05:58:29.578Z,1.36
2022-12-11T06:00:56.945Z,1.31
2022-12-11T06:03:24.362Z,1.38
2022-12-11T06:05:51.693Z,1.44
2022-12-11T06:08:18.965Z,1.47
2022-12-11T06:10:47.951Z,1.45
2022-12-11T06:13:15.634Z,1.43
2022-12-11T06:15:42.848Z,1.38
2022-12-11T06:18:10.675Z,1.42
2022-12-11T06:20:37.906Z,1.35
2022-12-11T06:23:05.018Z,1.42
2022-12-11T06:25:32.368Z,1.36
2022-12-11T06:27:59.627Z,1.39
2022-12-11T06:30:37.380Z,1.41
2022-12-11T06:33:06.990Z,1.39
2022-12-11T06:35:38.736Z,1.44
2022-12-11T06:38:10.669Z,1.42
2022-12-11T06:40:38.345Z,1.38
2022-12-11T06:43:05.396Z,1.35
2022-12-11T06:45:32.819Z,1.32
2022-12-11T06:47:59.952Z,1.33
2022-12-11T06:50:27.008Z,1.32
2022-12-11T06:52:56.249Z,1.29
2022-12-11T06:55:23.446Z,1.32
2022-12-11T06:57:50.539Z,1.41
2022-12-11T07:00:17.941Z,1.36
2022-12-11T07:02:44.987Z,1.39
2022-12-11T07:05:12.411Z,1.47
2022-12-11T07:07:39.961Z,1.45
2022-12-11T07:10:08.510Z,1.43
2022-12-11T07:12:36.664Z,1.49
2022-12-11T07:15:05.084Z,1.52
2022-12-11T07:17:32.238Z,1.56
2022-12-11T07:19:59.312Z,1.46
2022-12-11T07:22:26.713Z,1.48
2022-12-11T07:24:53.767Z,1.44
2022-12-11T07:27:20.906Z,1.49
2022-12-11T07:29:48.253Z,1.50
2022-12-11T07:32:15.385Z,1.65
2022-12-11T07:34:45.026Z,1.66
2022-12-11T07:37:15.977Z,1.77
2022-12-11T07:39:43.032Z,1.81
2022-12-11T07:42:10.085Z,1.79
2022-12-11T07:44:37.504Z,1.82
2022-12-11T07:47:04.683Z,1.79
2022-12-11T07:49:31.739Z,1.85
2022-12-11T07:51:59.155Z,1.90
2022-12-11T07:54:26.209Z,1.87
2022-12-11T07:56:54.103Z,1.89
2022-12-11T07:59:21.617Z,1.96
2022-12-11T08:01:48.746Z,1.91
2022-12-11T08:04:16.245Z,1.95
2022-12-11T08:06:43.552Z,2.01
2022-12-11T08:09:20.767Z,1.97
2022-12-11T08:11:50.502Z,1.95
2022-12-11T08:14:18.289Z,1.93
2022-12-11T08:16:45.459Z,1.82
2022-12-11T08:19:13.288Z,1.80
2022-12-11T08:21:40.538Z,1.78
2022-12-11T08:24:08.633Z,1.75
2022-12-11T08:26:36.346Z,1.83
2022-12-11T08:29:03.802Z,1.83
2022-12-11T08:31:33.385Z,1.84
2022-12-11T08:34:03.364Z,1.85
2022-12-11T08:36:30.553Z,1.81
2022-12-11T08:38:57.852Z,1.79
2022-12-11T08:41:30.042Z,1.84
2022-12-11T08:43:58.670Z,1.81
2022-12-11T08:46:28.352Z,1.75
2022-12-11T08:48:56.355Z,1.81
2022-12-11T08:51:26.152Z,1.78
2022-12-11T08:53:58.215Z,1.84
2022-12-11T08:56:26.287Z,1.82
2022-12-11T08:58:54.081Z,1.76
2022-12-11T09:01:24.215Z,1.76
2022-12-11T09:03:52.785Z,1.79
2022-12-11T09:06:22.258Z,1.84
2022-12-11T09:08:52.915Z,1.76
2022-12-11T09:11:23.433Z,1.86
2022-12-11T09:13:51.067Z,1.89
2022-12-11T09:16:20.570Z,1.85
2022-12-11T09:18:49.861Z,1.84
2022-12-11T09:21:19.113Z,1.89
2022-12-11T09:23:46.854Z,1.93
2022-12-11T09:26:16.435Z,1.90
2022-12-11T09:28:46.715Z,1.86
2022-12-11T09:31:17.084Z,1.83
2022-12-11T09:33:44.372Z,1.92
2022-12-11T09:36:12.139Z,1.91
2022-12-11T09:38:39.691Z,1.87
2022-12-11T09:41:33.205Z,1.86
2022-12-11T09:44:17.944Z,1.94
2022-12-11T09:46:45.736Z,1.90
2022-12-11T09:49:34.242Z,1.92
2022-12-11T09:52:14.347Z,1.97
2022-12-11T09:54:58.048Z,1.93
2022-12-11T09:57:34.243Z,1.92
2022-12-11T10:00:12.791Z,1.98
2022-12-11T10:03:07.258Z,1.86
2022-12-11T10:06:04.229Z,1.92
2022-12-11T10:08:56.913Z,1.89
2022-12-11T10:11:36.795Z,1.99
2022-12-11T10:14:18.332Z,1.89
2022-12-11T10:16:47.925Z,1.88
2022-12-11T10:19:19.639Z,1.85
2022-12-11T10:21:47.218Z,1.87
2022-12-11T10:24:50.110Z,1.89
2022-12-11T10:27:19.900Z,1.90
2022-12-11T10:30:18.935Z,1.82
2022-12-11T10:32:50.758Z,1.94
2022-12-11T10:35:43.836Z,1.98
2022-12-11T10:38:20.403Z,1.92
2022-12-11T10:41:02.905Z,1.87
2022-12-11T10:43:38.874Z,1.83
2022-12-11T10:46:07.540Z,1.81
2022-12-11T10:48:34.937Z,1.87
2022-12-11T10:51:05.580Z,1.80
2022-12-11T10:53:34.011Z,1.86
2022-12-11T10:56:01.965Z,1.94
2022-12-11T10:58:33.908Z,1.93
2022-12-11T11:01:10.691Z,1.88
2022-12-11T11:03:51.888Z,1.89
2022-12-11T11:06:20.660Z,2.00
2022-12-11T11:08:50.801Z,2.00
2022-12-11T11:11:25.896Z,2.07
2022-12-11T11:14:07.277Z,2.15
2022-12-11T11:16:38.338Z,2.12
2022-12-11T11:19:06.487Z,2.14
2022-12-11T11:21:35.109Z,2.07
2022-12-11T11:24:02.176Z,2.02
2022-12-11T11:27:04.257Z,2.05
2022-12-11T11:29:31.254Z,2.04
2022-12-11T11:32:14.776Z,2.09
2022-12-11T11:34:42.030Z,2.11
2022-12-11T11:37:25.200Z,2.11
2022-12-11T11:39:57.690Z,2.11
2022-12-11T11:42:38.132Z,2.14
2022-12-11T11:45:25.160Z,2.09
2022-12-11T11:48:09.458Z,2.09
2022-12-11T11:50:41.413Z,2.12
2022-12-11T11:53:13.854Z,2.16
2022-12-11T11:55:55.748Z,2.16
2022-12-11T11:58:27.705Z,2.15
2022-12-11T12:00:55.289Z,2.02
2022-12-11T12:03:24.305Z,2.07
2022-12-11T12:06:15.853Z,2.13
2022-12-11T12:09:09.168Z,2.20
2022-12-11T12:12:00.978Z,2.12
2022-12-11T12:14:54.734Z,2.21
2022-12-11T12:17:38.777Z,2.18
2022-12-11T12:20:28.498Z,2.21
2022-12-11T12:23:14.379Z,2.20
2022-12-11T12:25:54.737Z,2.18
2022-12-11T12:28:49.025Z,2.20
2022-12-11T12:31:47.544Z,2.12
2022-12-11T12:34:29.629Z,2.11
2022-12-11T12:37:28.041Z,2.18
2022-12-11T12:40:23.957Z,2.15
2022-12-11T12:43:19.809Z,2.22
2022-12-11T12:45:53.832Z,2.27
2022-12-11T12:48:21.395Z,2.22
2022-12-11T12:50:49.584Z,2.21
2022-12-11T12:53:20.136Z,2.18
2022-12-11T12:55:48.451Z,2.17
2022-12-11T12:58:34.053Z,2.15
2022-12-11T13:01:07.408Z,2.15
2022-12-11T13:03:37.831Z,2.19
2022-12-11T13:06:08.698Z,2.17
2022-12-11T13:08:46.055Z,2.17
2022-12-11T13:11:16.172Z,2.23
2022-12-11T13:13:51.596Z,2.26
2022-12-11T13:16:27.033Z,2.28
2022-12-11T13:18:54.642Z,2.23
2022-12-11T13:21:42.699Z,2.19
2022-12-11T13:24:12.840Z,2.24
2022-12-11T13:26:40.742Z,2.24
2022-12-11T13:29:28.301Z,2.26
2022-12-11T13:32:09.105Z,2.31
2022-12-11T13:34:44.713Z,2.31
2022-12-11T13:37:27.308Z,2.42
2022-12-11T13:39:54.964Z,2.42
2022-12-11T13:42:28.329Z,2.34
2022-12-11T13:44:55.608Z,2.25
2022-12-11T13:47:23.985Z,2.22
2022-12-11T13:49:54.958Z,2.14
2022-12-11T13:52:25.884Z,2.15
2022-12-11T13:54:54.330Z,2.15
2022-12-11T13:57:23.256Z,2.10
2022-12-11T13:59:53.400Z,2.05
2022-12-11T14:02:26.415Z,2.01
2022-12-11T14:04:57.276Z,2.04
2022-12-11T14:07:28.839Z,2.04
2022-12-11T14:10:08.061Z,2.00
2022-12-11T14:12:35.645Z,2.00
2022-12-11T14:15:04.806Z,1.96
2022-12-11T14:17:34.557Z,1.92
2022-12-11T14:20:07.306Z,1.98
2022-12-11T14:22:34.934Z,2.08
2022-12-11T14:25:14.794Z,2.08
2022-12-11T14:27:48.425Z,2.17
2022-12-11T14:30:22.151Z,2.03
2022-12-11T14:32:50.346Z,1.93
2022-12-11T14:35:34.132Z,1.88
2022-12-11T14:38:27.632Z,1.85
2022-12-11T14:41:02.843Z,1.83
2022-12-11T14:43:40.337Z,1.75
2022-12-11T14:46:14.298Z,1.83
2022-12-11T14:48:45.536Z,1.83
2022-12-11T14:51:15.114Z,1.90
2022-12-11T14:53:45.549Z,1.82
2022-12-11T14:56:21.511Z,1.73
2022-12-11T14:59:09.210Z,1.72
2022-12-11T15:01:37.469Z,1.79
2022-12-11T15:04:22.556Z,1.74
2022-12-11T15:06:51.970Z,1.76
2022-12-11T15:09:21.838Z,1.74
2022-12-11T15:11:49.369Z,1.78
2022-12-11T15:14:18.885Z,1.79
2022-12-11T15:16:47.782Z,1.81
2022-12-11T15:19:31.762Z,1.80
2022-12-11T15:22:07.096Z,1.80
2022-12-11T15:24:34.053Z,1.84
2022-12-11T15:27:01.500Z,1.75
2022-12-11T15:29:36.100Z,1.64
2022-12-11T15:32:09.382Z,1.74
2022-12-11T15:34:57.910Z,1.75
2022-12-11T15:37:26.476Z,1.81
2022-12-11T15:39:54.770Z,1.82
2022-12-11T15:42:28.028Z,1.73
2022-12-11T15:44:56.250Z,1.74
2022-12-11T15:47:29.660Z,1.80
2022-12-11T15:50:02.463Z,1.74
2022-12-11T15:52:29.954Z,1.68
2022-12-11T15:54:57.523Z,1.68
2022-12-11T15:57:24.749Z,1.66
2022-12-11T15:59:53.430Z,1.73
2022-12-11T16:02:20.864Z,1.67
2022-12-11T16:04:48.239Z,1.63
2022-12-11T16:07:19.124Z,1.56
2022-12-11T16:09:46.526Z,1.57
2022-12-11T16:12:14.377Z,1.64
2022-12-11T16:14:42.204Z,1.67
2022-12-11T16:17:10.197Z,1.60
2022-12-11T16:19:37.581Z,1.55
2022-12-11T16:22:05.472Z,1.55
2022-12-11T16:24:33.112Z,1.42
2022-12-11T16:27:00.700Z,1.37
2022-12-11T16:29:27.945Z,1.37
2022-12-11T16:31:55.328Z,1.39
2022-12-11T16:34:28.854Z,1.49
2022-12-11T16:36:57.918Z,1.39
2022-12-11T16:39:25.491Z,1.43
2022-12-11T16:41:52.587Z,1.47
2022-12-11T16:44:21.297Z,1.47
2022-12-11T16:46:48.944Z,1.34
2022-12-11T16:49:16.068Z,1.34
2022-12-11T16:51:44.025Z,1.31
2022-12-11T16:54:11.780Z,1.15
2022-12-11T16:56:39.203Z,1.20
2022-12-11T16:59:09.064Z,1.26
2022-12-11T17:01:36.486Z,1.24
2022-12-11T17:04:03.645Z,1.18
2022-12-11T17:06:30.902Z,1.26
2022-12-11T17:08:58.382Z,1.21
2022-12-11T17:11:26.229Z,1.18
2022-12-11T17:13:59.131Z,1.13
2022-12-11T17:16:29.383Z,1.18
2022-12-11T17:18:58.539Z,1.13
2022-12-11T17:21:25.755Z,1.19
2022-12-11T17:23:53.138Z,1.07
2022-12-11T17:26:20.446Z,1.07
2022-12-11T17:28:47.686Z,1.13
2022-12-11T17:31:17.371Z,1.10
2022-12-11T17:33:46.027Z,0.97
2022-12-11T17:36:17.541Z,0.89
2022-12-11T17:38:45.357Z,0.96
2022-12-11T17:41:20.052Z,1.01
2022-12-11T17:43:49.567Z,0.85
2022-12-11T17:46:17.006Z,0.86
2022-12-11T17:48:44.330Z,0.87
2022-12-11T17:51:13.716Z,0.97
2022-12-11T17:53:40.815Z,1.00
2022-12-11T17:56:08.687Z,0.87
2022-12-11T17:58:38.682Z,0.87
2022-12-11T18:01:08.306Z,0.75
2022-12-11T18:03:36.458Z,0.81
2022-12-11T18:06:10.579Z,0.79
2022-12-11T18:08:38.023Z,0.86
2022-12-11T18:11:12.379Z,0.82
2022-12-11T18:13:39.620Z,0.83
2022-12-11T18:16:33.447Z,0.80
2022-12-11T18:19:00.899Z,0.79
2022-12-11T18:21:31.967Z,0.81
2022-12-11T18:23:59.713Z,0.82
2022-12-11T18:26:27.799Z,0.83
2022-12-11T18:28:55.040Z,0.90
2022-12-11T18:31:22.444Z,0.84
2022-12-11T18:33:50.358Z,0.84
2022-12-11T18:36:18.650Z,0.77
2022-12-11T18:38:47.031Z,0.76
2022-12-11T18:41:15.459Z,0.78
2022-12-11T18:43:42.766Z,0.72
2022-12-11T18:46:14.143Z,0.79
2022-12-11T18:48:43.127Z,0.78
2022-12-11T18:51:15.570Z,0.75
2022-12-11T18:53:43.338Z,0.79
2022-12-11T18:56:15.606Z,0.86
2022-12-11T18:58:43.324Z,0.84
2022-12-11T19:01:20.353Z,0.71
2022-12-11T19:03:47.978Z,0.59
2022-12-11T19:06:17.960Z,0.64
2022-12-11T19:08:45.666Z,0.73
2022-12-11T19:11:17.836Z,0.78
2022-12-11T19:13:45.257Z,0.77
2022-12-11T19:16:21.207Z,0.73
2022-12-11T19:18:51.110Z,0.75
2022-12-11T19:21:18.918Z,0.72
2022-12-11T19:23:46.208Z,0.73
2022-12-11T19:26:18.457Z,0.78
2022-12-11T19:28:46.915Z,0.75
2022-12-11T19:31:17.067Z,0.69
2022-12-11T19:33:44.520Z,0.76
2022-12-11T19:36:14.000Z,0.84
2022-12-11T19:38:42.730Z,0.78
2022-12-11T19:41:26.984Z,0.77
2022-12-11T19:43:56.161Z,0.78
2022-12-11T19:46:23.907Z,0.78
2022-12-11T19:48:57.074Z,0.84
2022-12-11T19:51:27.158Z,0.75
2022-12-11T19:53:54.394Z,0.75
2022-12-11T19:56:21.510Z,0.76
2022-12-11T19:58:49.862Z,0.67
2022-12-11T20:01:21.400Z,0.59
2022-12-11T20:03:49.675Z,0.69
2022-12-11T20:06:16.812Z,0.57
2022-12-11T20:08:45.504Z,0.53
2022-12-11T20:11:17.947Z,0.62
2022-12-11T20:13:49.385Z,0.55
2022-12-11T20:16:20.032Z,0.56
2022-12-11T20:18:57.226Z,0.46
2022-12-11T20:21:24.957Z,0.51
2022-12-11T20:23:51.985Z,0.48
2022-12-11T20:26:23.386Z,0.51
2022-12-11T20:28:52.063Z,0.59
2022-12-11T20:31:24.485Z,0.46
2022-12-11T20:33:53.258Z,0.38
2022-12-11T20:36:21.795Z,0.25
2022-12-11T20:38:49.632Z,0.37
2022-12-11T20:41:19.898Z,0.35
2022-12-11T20:43:48.999Z,0.33
2022-12-11T20:46:17.756Z,0.25
2022-12-11T20:48:45.464Z,0.34
2022-12-11T20:51:18.603Z,0.33
2022-12-11T20:53:56.463Z,0.42
2022-12-11T20:56:24.723Z,0.31
2022-12-11T20:58:52.236Z,0.32
2022-12-11T21:01:23.588Z,0.28
2022-12-11T21:03:52.247Z,0.34
2022-12-11T21:06:21.964Z,0.33
2022-12-11T21:08:49.225Z,0.22
2022-12-11T21:11:18.186Z,0.06
2022-12-11T21:13:45.574Z,0.10
2022-12-11T21:16:12.789Z,0.18
2022-12-11T21:18:40.007Z,0.14
2022-12-11T21:21:07.486Z,0.10
2022-12-11T21:23:34.605Z,0.08
2022-12-11T21:26:03.168Z,0.18
2022-12-11T21:28:35.489Z,0.22
2022-12-11T21:31:05.974Z,0.16
2022-12-11T21:33:34.202Z,0.18
2022-12-11T21:36:01.499Z,0.16
2022-12-11T21:38:29.214Z,0.19
2022-12-11T21:40:56.969Z,0.09
2022-12-11T21:43:24.898Z,0.13
2022-12-11T21:46:01.419Z,0.14
2022-12-11T21:48:29.045Z,0.27
2022-12-11T21:51:03.774Z,0.26
2022-12-11T21:53:31.145Z,0.35
2022-12-11T21:55:58.209Z,0.46
2022-12-11T21:58:25.247Z,0.54
2022-12-11T22:00:52.699Z,0.73
2022-12-11T22:03:20.117Z,0.70
2022-12-11T22:05:47.201Z,0.66
2022-12-11T22:08:15.403Z,0.66
2022-12-11T22:10:42.789Z,0.69
2022-12-11T22:13:09.821Z,0.72
2022-12-11T22:15:36.969Z,0.44
2022-12-11T22:18:04.454Z,0.35
2022-12-11T22:20:31.698Z,0.29
2022-12-11T22:22:58.754Z,0.30
2022-12-11T22:25:26.157Z,0.05
2022-12-11T22:27:53.215Z,0.10
2022-12-11T22:30:20.300Z,0.23
2022-12-11T22:32:48.443Z,0.36
2022-12-11T22:35:15.682Z,0.36
2022-12-11T22:37:42.874Z,0.40
2022-12-11T22:40:10.580Z,0.38
2022-12-11T22:42:37.652Z,0.26
2022-12-11T22:45:05.057Z,0.07
2022-12-11T22:47:32.713Z,-0.04
2022-12-11T22:49:59.795Z,-0.11
2022-12-11T22:52:26.852Z,-0.11
2022-12-11T22:54:54.207Z,-0.19
2022-12-11T22:57:21.267Z,-0.14
2022-12-11T22:59:48.785Z,-0.18
2022-12-11T23:02:16.561Z,-0.32
2022-12-11T23:04:43.696Z,-0.45
2022-12-11T23:07:10.748Z,-0.53
2022-12-11T23:09:38.127Z,-0.51
2022-12-11T23:12:05.497Z,-0.65
2022-12-11T23:14:32.564Z,-0.59
2022-12-11T23:17:00.117Z,-0.48
2022-12-11T23:19:27.322Z,-0.59
2022-12-11T23:21:54.407Z,-0.68
2022-12-11T23:24:22.477Z,-0.63
2022-12-11T23:26:49.527Z,-0.71
2022-12-11T23:29:16.617Z,-0.73
2022-12-11T23:31:43.974Z,-0.68
2022-12-11T23:34:11.071Z,-0.79
2022-12-11T23:36:38.569Z,-0.88
2022-12-11T23:39:05.966Z,-0.75
2022-12-11T23:41:33.038Z,-0.70
2022-12-11T23:44:00.088Z,-0.78
2022-12-11T23:46:27.526Z,-0.74
2022-12-11T23:48:54.950Z,-1.01
2022-12-11T23:51:24.180Z,-0.91
2022-12-11T23:53:51.870Z,-0.77
2022-12-11T23:56:27.196Z,-0.92
2022-12-11T23:58:55.398Z,-0.79
